Time;durP1;ratioP1;P1;durP2;ratioP2;P2;SDS_P1;SDS_P2;PMS_P1;PMS_P2;Temp;Humidity;BMP_temperature;BMP_pressure;BME280_temperature;BME280_humidity;BME280_pressure;Samples;Min_cycle;Max_cycle;Signal;HPM_P1;HPM_P2
2023/04/17 00:00:31;;;;;;;;;;;9.80;83.00;;;-151.14;100.00;62537.16;4974649;28;19941;-89
2023/04/17 00:03:00;;;;;;;;;;;9.80;83.00;;;-151.14;100.00;62537.16;4990979;28;19921;-90
2023/04/17 00:05:30;;;;;;;;;;;9.80;83.00;;;-151.14;100.00;62537.16;4990489;28;19921;-89
2023/04/17 00:07:59;;;;;;;;;;;9.80;83.10;;;-151.14;100.00;62537.16;4990900;28;19922;-89
2023/04/17 00:10:27;;;;;;;;;;;9.70;83.10;;;-151.14;100.00;62537.16;4991042;28;19928;-90
2023/04/17 00:12:55;;;;;;;;;;;9.80;83.20;;;-151.14;100.00;62537.16;4990882;28;19922;-90
2023/04/17 00:15:23;;;;;;;;;;;9.80;83.00;;;-151.14;100.00;62537.16;4990616;28;20209;-91
2023/04/17 00:17:53;;;;;;;;;;;9.70;83.00;;;-151.14;100.00;62537.16;4990855;28;19922;-90
2023/04/17 00:20:21;;;;;;;;;;;9.70;83.00;;;-151.14;100.00;62537.16;4990878;28;20231;-90
2023/04/17 00:22:49;;;;;;;;;;;9.70;83.10;;;-151.14;100.00;62537.16;4974575;28;20128;-90
2023/04/17 00:25:17;;;;;;;;;;;9.80;83.10;;;-151.14;100.00;62537.16;4990275;28;19921;-89
2023/04/17 00:27:45;;;;;;;;;;;9.70;83.20;;;-151.14;100.00;62537.16;4990873;28;19922;-90
2023/04/17 00:30:13;;;;;;;;;;;9.70;83.20;;;-151.14;100.00;62537.16;5007204;28;19922;-93
2023/04/17 00:32:41;;;;;;;;;;;9.80;83.20;;;-151.14;100.00;62537.16;4974536;28;19921;-89
2023/04/17 00:35:11;;;;;;;;;;;9.80;83.20;;;-151.14;100.00;62537.16;4991433;28;19922;-90
2023/04/17 00:37:39;;;;;;;;;;;9.70;83.20;;;-151.14;100.00;62537.16;4991842;28;19928;-90
2023/04/17 00:40:08;;;;;;;;;;;9.70;83.10;;;-151.14;100.00;62537.16;4974712;28;19922;-90
2023/04/17 00:42:36;;;;;;;;;;;9.80;83.20;;;-151.14;100.00;62537.16;4974537;28;20148;-90
2023/04/17 00:45:09;;;;;;;;;;;9.70;83.20;;;-151.14;100.00;62537.16;4973835;28;19922;-91
2023/04/17 00:47:37;;;;;;;;;;;9.80;83.20;;;-151.14;100.00;62537.16;4990590;28;19928;-91
2023/04/17 00:50:06;;;;;;;;;;;9.70;83.20;;;-151.14;100.00;62537.16;4974137;28;19921;-90
2023/04/17 00:52:36;;;;;;;;;;;9.70;83.20;;;-151.14;100.00;62537.16;4974293;28;19930;-90
2023/04/17 00:55:05;;;;;;;;;;;9.80;83.20;;;-151.14;100.00;62537.16;4989829;28;19922;-90
2023/04/17 00:57:33;;;;;;;;;;;9.70;83.10;;;-151.14;100.00;62537.16;4975796;28;19928;-90
2023/04/17 01:00:01;;;;;;;;;;;9.70;83.20;;;-151.14;100.00;62537.16;4977402;28;19922;-90
2023/04/17 01:02:29;;;;;;;;;;;9.70;83.10;;;-151.14;100.00;62537.16;4993921;28;19922;-89
2023/04/17 01:04:58;;;;;;;;;;;9.70;83.20;;;-151.14;100.00;62537.16;4976989;28;20120;-90
2023/04/17 01:07:27;;;;;;;;;;;9.80;83.20;;;-151.14;100.00;62537.16;4993786;28;19926;-91
2023/04/17 01:09:57;;;;;;;;;;;9.70;83.20;;;-151.14;100.00;62537.16;4993474;28;19925;-89
2023/04/17 01:12:25;;;;;;;;;;;9.80;83.30;;;-151.14;100.00;62537.16;4993629;28;19929;-90
2023/04/17 01:14:53;;;;;;;;;;;9.70;83.10;;;-151.14;100.00;62537.16;4992801;28;19921;-90
2023/04/17 01:17:21;;;;;;;;;;;9.70;83.10;;;-151.14;100.00;62537.16;4994641;28;20228;-90
2023/04/17 01:19:50;;;;;;;;;;;9.80;83.20;;;-151.14;100.00;62537.16;4993393;28;19928;-90
2023/04/17 01:22:19;;;;;;;;;;;9.70;83.20;;;-151.14;100.00;62537.16;4977276;28;19922;-90
2023/04/17 01:24:48;;;;;;;;;;;9.70;83.20;;;-151.14;100.00;62537.16;4992840;28;19928;-90
2023/04/17 01:27:17;;;;;;;;;;;9.70;83.10;;;-151.14;100.00;62537.16;4993276;28;19922;-90
2023/04/17 01:29:46;;;;;;;;;;;9.70;83.20;;;-151.14;100.00;62537.16;5009587;28;19922;-89
2023/04/17 01:32:14;;;;;;;;;;;9.70;83.30;;;-151.14;100.00;62537.16;4993293;28;19922;-90
2023/04/17 01:34:43;;;;;;;;;;;9.80;83.20;;;-151.14;100.00;62537.16;5008902;28;19944;-90
2023/04/17 01:37:11;;;;;;;;;;;9.70;83.20;;;-151.14;100.00;62537.16;4977171;28;19930;-90
2023/04/17 01:39:39;;;;;;;;;;;9.70;83.30;;;-151.14;100.00;62537.16;5009460;28;19922;-90
2023/04/17 01:42:09;;;;;;;;;;;9.70;83.20;;;-151.14;100.00;62537.16;4994319;28;20120;-90
2023/04/17 01:44:37;;;;;;;;;;;9.70;83.20;;;-151.14;100.00;62537.16;4976390;28;19928;-90
2023/04/17 01:47:05;;;;;;;;;;;9.70;83.20;;;-151.14;100.00;62537.16;4992922;28;19922;-90
2023/04/17 01:49:33;;;;;;;;;;;9.70;83.20;;;-151.14;100.00;62537.16;4986029;28;19922;-90
2023/04/17 01:52:01;;;;;;;;;;;9.70;83.20;;;-151.14;100.00;62537.16;5029080;28;20295;-90
2023/04/17 01:54:30;;;;;;;;;;;9.70;83.20;;;-151.14;100.00;62537.16;5011948;28;19940;-91
2023/04/17 01:56:58;;;;;;;;;;;9.70;83.20;;;-151.14;100.00;62537.16;5012342;28;20141;-91
2023/04/17 01:59:28;;;;;;;;;;;9.70;83.30;;;-151.14;100.00;62537.16;5012255;28;19921;-90
2023/04/17 02:01:56;;;;;;;;;;;9.70;83.30;;;-151.14;100.00;62537.16;5012581;28;19943;-90
2023/04/17 02:04:24;;;;;;;;;;;9.70;83.30;;;-151.14;100.00;62537.16;5011694;28;19929;-90
2023/04/17 02:06:52;;;;;;;;;;;9.70;83.20;;;-151.14;100.00;62537.16;5012051;28;19922;-90
2023/04/17 02:09:20;;;;;;;;;;;9.70;83.30;;;-151.14;100.00;62537.16;5010882;28;19928;-90
2023/04/17 02:11:48;;;;;;;;;;;9.70;83.20;;;-151.14;100.00;62537.16;5012239;28;19921;-90
2023/04/17 02:14:18;;;;;;;;;;;9.70;83.30;;;-151.14;100.00;62537.16;5011711;28;19928;-90
2023/04/17 02:16:47;;;;;;;;;;;9.70;83.30;;;-151.14;100.00;62537.16;5012306;28;19927;-90
2023/04/17 02:19:15;;;;;;;;;;;9.70;83.30;;;-151.14;100.00;62537.16;5011967;28;20231;-90
2023/04/17 02:21:43;;;;;;;;;;;9.70;83.30;;;-151.14;100.00;62537.16;5012094;28;20102;-90
2023/04/17 02:24:11;;;;;;;;;;;9.70;83.30;;;-151.14;100.00;62537.16;4995558;28;19928;-90
2023/04/17 02:26:40;;;;;;;;;;;9.70;83.40;;;-151.14;100.00;62537.16;4995653;28;19921;-89
2023/04/17 02:29:08;;;;;;;;;;;9.70;83.30;;;-151.14;100.00;62537.16;4995707;28;19921;-90
2023/04/17 02:31:37;;;;;;;;;;;9.70;83.30;;;-151.14;100.00;62537.16;5011976;28;20120;-90
2023/04/17 02:34:07;;;;;;;;;;;9.70;83.30;;;-151.14;100.00;62537.16;5011192;28;19928;-90
2023/04/17 02:36:35;;;;;;;;;;;9.70;83.30;;;-151.14;100.00;62537.16;4995768;28;19921;-90
2023/04/17 02:39:04;;;;;;;;;;;9.70;83.30;;;-151.14;100.00;62537.16;4995478;28;19928;-90
2023/04/17 02:41:33;;;;;;;;;;;9.70;83.30;;;-151.14;100.00;62537.16;5011805;28;20101;-90
2023/04/17 02:44:01;;;;;;;;;;;9.70;83.30;;;-151.14;100.00;62537.16;4995216;28;19921;-90
2023/04/17 02:46:30;;;;;;;;;;;9.70;83.30;;;-151.14;100.00;62537.16;5011538;28;20005;-90
2023/04/17 02:48:58;;;;;;;;;;;9.70;83.20;;;-151.14;100.00;62537.16;5027264;23;19928;31
2023/04/17 02:51:27;;;;;;;;;;;9.70;83.30;;;-151.14;100.00;62537.16;4972897;28;19922;-85
2023/04/17 02:53:55;;;;;;;;;;;9.70;83.40;;;-151.14;100.00;62537.16;4991417;28;19944;-85
2023/04/17 02:56:24;;;;;;;;;;;9.70;83.30;;;-151.14;100.00;62537.16;4991492;28;20127;-86
2023/04/17 02:58:52;;;;;;;;;;;9.70;83.30;;;-151.14;100.00;62537.16;4992077;28;20244;-85
2023/04/17 03:01:20;;;;;;;;;;;9.70;83.30;;;-151.14;100.00;62537.16;4975886;28;19928;-86
2023/04/17 03:03:49;;;;;;;;;;;9.70;83.40;;;-151.14;100.00;62537.16;4975712;28;19932;-86
2023/04/17 03:06:17;;;;;;;;;;;9.70;83.40;;;-151.14;100.00;62537.16;4991226;28;19922;-85
2023/04/17 03:08:46;;;;;;;;;;;9.70;83.40;;;-151.14;100.00;62537.16;4975696;28;20231;-85
2023/04/17 03:11:14;;;;;;;;;;;9.70;83.40;;;-151.14;100.00;62537.16;4991652;28;19929;-86
2023/04/17 03:13:43;;;;;;;;;;;9.70;83.40;;;-151.14;100.00;62537.16;4975872;28;19928;-87
2023/04/17 03:16:11;;;;;;;;;;;9.70;83.40;;;-151.14;100.00;62537.16;4991252;28;19928;-86
2023/04/17 03:18:39;;;;;;;;;;;9.70;83.40;;;-151.14;100.00;62537.16;4975699;28;19936;-87
2023/04/17 03:21:08;;;;;;;;;;;9.70;83.30;;;-151.14;100.00;62537.16;4974766;28;19922;-86
2023/04/17 03:23:36;;;;;;;;;;;9.70;83.30;;;-151.14;100.00;62537.16;4991824;28;19921;-86
2023/04/17 03:26:06;;;;;;;;;;;9.70;83.30;;;-151.14;100.00;62537.16;4974812;28;19922;-86
2023/04/17 03:28:34;;;;;;;;;;;9.70;83.30;;;-151.14;100.00;62537.16;4975537;28;19922;-86
2023/04/17 03:31:05;;;;;;;;;;;9.70;83.30;;;-151.14;100.00;62537.16;4991581;28;19928;-85
2023/04/17 03:33:36;;;;;;;;;;;9.70;83.40;;;-151.14;100.00;62537.16;4991727;28;19922;-86
2023/04/17 03:36:05;;;;;;;;;;;9.70;83.30;;;-151.14;100.00;62537.16;4974744;28;19957;-86
2023/04/17 03:38:36;;;;;;;;;;;9.70;83.30;;;-151.14;100.00;62537.16;4975335;28;19921;-85
2023/04/17 03:41:07;;;;;;;;;;;9.70;83.20;;;-151.14;100.00;62537.16;4975443;28;19921;-86
2023/04/17 03:43:35;;;;;;;;;;;9.70;83.20;;;-151.14;100.00;62537.16;4975347;28;19928;-86
2023/04/17 03:46:03;;;;;;;;;;;9.70;83.20;;;-151.14;100.00;62537.16;4990726;28;19922;-86
2023/04/17 03:48:32;;;;;;;;;;;9.70;83.20;;;-151.14;100.00;62537.16;4991404;28;20120;-86
2023/04/17 03:51:00;;;;;;;;;;;9.70;83.20;;;-151.14;100.00;62537.16;4968974;28;19922;-85
2023/04/17 03:53:30;;;;;;;;;;;9.70;83.20;;;-151.14;100.00;62537.16;4971941;28;19923;-86
2023/04/17 03:56:00;;;;;;;;;;;9.70;83.20;;;-151.14;100.00;62537.16;4971125;28;19936;-87
2023/04/17 03:58:35;;;;;;;;;;;9.70;83.30;;;-151.14;100.00;62537.16;4972093;28;19922;-86
2023/04/17 04:01:04;;;;;;;;;;;9.70;83.30;;;-151.14;100.00;62537.16;4955853;28;19922;-86
2023/04/17 04:03:36;;;;;;;;;;;9.70;83.20;;;-151.14;100.00;62537.16;4955953;28;19922;-86
2023/04/17 04:06:06;;;;;;;;;;;9.70;83.20;;;-151.14;100.00;62537.16;4955570;28;19922;-86
2023/04/17 04:08:35;;;;;;;;;;;9.70;83.20;;;-151.14;100.00;62537.16;4971686;28;19930;-87
2023/04/17 04:11:03;;;;;;;;;;;9.70;83.20;;;-151.14;100.00;62537.16;4955734;28;19923;-86
2023/04/17 04:13:41;;;;;;;;;;;9.70;83.20;;;-151.14;100.00;62537.16;4955785;28;19926;-86
2023/04/17 04:16:09;;;;;;;;;;;9.70;83.20;;;-151.14;100.00;62537.16;4955175;28;19929;-86
2023/04/17 04:18:40;;;;;;;;;;;9.70;83.20;;;-151.14;100.00;62537.16;4955732;28;19922;-86
2023/04/17 04:21:10;;;;;;;;;;;9.70;83.20;;;-151.14;100.00;62537.16;4955397;28;20430;-86
2023/04/17 04:23:44;;;;;;;;;;;9.70;83.10;;;-151.14;100.00;62537.16;4955587;28;19928;-87
2023/04/17 04:26:15;;;;;;;;;;;9.70;83.10;;;-151.14;100.00;62537.16;4954836;28;19929;-86
2023/04/17 04:28:53;;;;;;;;;;;9.70;83.20;;;-151.14;100.00;62537.16;4955448;28;19922;-87
2023/04/17 04:31:29;;;;;;;;;;;9.80;83.20;;;-151.14;100.00;62537.16;4971742;28;19922;-86
2023/04/17 04:34:00;;;;;;;;;;;9.80;83.20;;;-151.14;100.00;62537.16;4958772;28;19928;-87
2023/04/17 04:36:28;;;;;;;;;;;9.80;83.00;;;-151.14;100.00;62537.16;4974739;28;19922;-87
2023/04/17 04:39:19;;;;;;;;;;;9.80;82.90;;;-151.14;100.00;62537.16;4976443;28;19922;-86
2023/04/17 04:41:49;;;;;;;;;;;9.90;82.80;;;-151.14;100.00;62537.16;4958721;28;19922;-86
2023/04/17 04:44:20;;;;;;;;;;;9.90;82.70;;;-151.14;100.00;62537.16;4974400;28;20228;-86
2023/04/17 04:46:51;;;;;;;;;;;10.00;82.50;;;-151.14;100.00;62537.16;4958616;28;19923;-86
2023/04/17 04:49:20;;;;;;;;;;;10.00;82.20;;;-151.14;100.00;62537.16;4964237;28;19921;-87
2023/04/17 04:51:48;;;;;;;;;;;10.10;82.20;;;-151.14;100.00;62537.16;4981168;28;19921;-86
2023/04/17 04:54:16;;;;;;;;;;;10.10;82.00;;;-151.14;100.00;62537.16;4980399;28;19922;-86
2023/04/17 04:56:56;;;;;;;;;;;10.10;81.80;;;-151.14;100.00;62537.16;4997213;28;19936;-86
2023/04/17 04:59:26;;;;;;;;;;;10.20;81.70;;;-151.14;100.00;62537.16;4997103;28;19921;-86
2023/04/17 05:02:19;;;;;;;;;;;10.20;81.50;;;-151.14;100.00;62537.16;4996798;28;19921;-86
2023/04/17 05:04:49;;;;;;;;;;;10.30;81.40;;;-151.14;100.00;62537.16;4980210;28;19922;-86
2023/04/17 05:07:18;;;;;;;;;;;10.30;81.20;;;-151.14;100.00;62537.16;4980589;28;19944;-86
2023/04/17 05:09:47;;;;;;;;;;;10.40;81.00;;;-151.14;100.00;62537.16;4980704;28;19922;-86
2023/04/17 05:12:17;;;;;;;;;;;10.50;80.90;;;-151.14;100.00;62537.16;4996798;28;19943;-86
2023/04/17 05:14:47;;;;;;;;;;;10.70;80.80;;;-151.14;100.00;62537.16;4996476;28;19928;-86
2023/04/17 05:17:18;;;;;;;;;;;10.90;80.20;;;-151.14;100.00;62537.16;4996678;28;19928;-87
2023/04/17 05:19:46;;;;;;;;;;;11.20;79.10;;;-151.14;100.00;62537.16;4980474;28;20120;-86
2023/04/17 05:22:15;;;;;;;;;;;11.40;77.80;;;-151.14;100.00;62537.16;5012983;28;19921;-86
2023/04/17 05:24:59;;;;;;;;;;;11.60;76.80;;;-151.14;100.00;62537.16;4979966;28;19936;-86
2023/04/17 05:27:27;;;;;;;;;;;11.80;75.90;;;-151.14;100.00;62537.16;4996482;28;19948;-86
2023/04/17 05:29:58;;;;;;;;;;;11.80;75.50;;;-151.14;100.00;62537.16;4980482;28;19921;-85
2023/04/17 05:32:27;;;;;;;;;;;11.90;75.20;;;-151.14;100.00;62537.16;4980299;28;19922;-87
2023/04/17 05:34:59;;;;;;;;;;;11.90;75.20;;;-151.14;100.00;62537.16;4995972;28;20120;-86
2023/04/17 05:37:29;;;;;;;;;;;11.80;75.10;;;-151.14;100.00;62537.16;4979916;28;19921;-86
2023/04/17 05:39:59;;;;;;;;;;;11.80;75.30;;;-151.14;100.00;62537.16;4980454;28;20117;-86
2023/04/17 05:42:29;;;;;;;;;;;11.80;75.50;;;-151.14;100.00;62537.16;4979878;28;19925;-86
2023/04/17 05:44:58;;;;;;;;;;;11.70;75.70;;;-151.14;100.00;62537.16;4979579;28;19928;-86
2023/04/17 05:47:27;;;;;;;;;;;11.70;75.90;;;-151.14;100.00;62537.16;4980202;28;19928;-85
2023/04/17 05:49:56;;;;;;;;;;;11.70;76.00;;;-151.14;100.00;62537.16;4996115;28;19943;-86
2023/04/17 05:52:27;;;;;;;;;;;11.70;76.20;;;-151.14;100.00;62537.16;4980062;28;19922;-86
2023/04/17 05:54:56;;;;;;;;;;;11.70;76.20;;;-151.14;100.00;62537.16;4995707;28;20212;-86
2023/04/17 05:57:25;;;;;;;;;;;11.70;76.30;;;-151.14;100.00;62537.16;4980102;28;19922;-85
2023/04/17 05:59:54;;;;;;;;;;;11.70;76.40;;;-151.14;100.00;62537.16;4980012;28;19921;-86
2023/04/17 06:02:23;;;;;;;;;;;11.70;76.50;;;-151.14;100.00;62537.16;4979891;28;19928;-87
2023/04/17 06:04:51;;;;;;;;;;;11.70;76.40;;;-151.14;100.00;62537.16;4979317;28;19922;-86
2023/04/17 06:07:19;;;;;;;;;;;11.70;76.50;;;-151.14;100.00;62537.16;4979850;28;19921;-86
2023/04/17 06:09:48;;;;;;;;;;;11.70;76.40;;;-151.14;100.00;62537.16;4979667;28;19928;-86
2023/04/17 06:12:16;;;;;;;;;;;11.80;76.50;;;-151.14;100.00;62537.16;4979711;28;19922;-86
2023/04/17 06:14:45;;;;;;;;;;;11.70;76.60;;;-151.14;100.00;62537.16;4995363;28;19921;-86
2023/04/17 06:17:15;;;;;;;;;;;11.70;76.50;;;-151.14;100.00;62537.16;4995879;28;19921;-86
2023/04/17 06:19:44;;;;;;;;;;;11.70;76.60;;;-151.14;100.00;62537.16;4979585;28;19927;-86
2023/04/17 06:22:12;;;;;;;;;;;11.70;76.70;;;-151.14;100.00;62537.16;4979597;28;20217;-86
2023/04/17 06:24:40;;;;;;;;;;;11.80;76.80;;;-151.14;100.00;62537.16;4995280;28;19921;-86
2023/04/17 06:27:08;;;;;;;;;;;11.70;76.50;;;-151.14;100.00;62537.16;4979636;28;19921;-86
2023/04/17 06:29:36;;;;;;;;;;;11.70;76.50;;;-151.14;100.00;62537.16;4995626;28;19928;-85
2023/04/17 06:32:05;;;;;;;;;;;11.60;76.70;;;-151.14;100.00;62537.16;4979556;28;19922;-86
2023/04/17 06:34:34;;;;;;;;;;;11.40;77.00;;;-151.14;100.00;62537.16;4995188;28;19921;-86
2023/04/17 06:37:03;;;;;;;;;;;11.30;77.50;;;-151.14;100.00;62537.16;4979407;28;19928;-86
2023/04/17 06:39:32;;;;;;;;;;;11.30;78.00;;;-151.14;100.00;62537.16;4979197;28;19921;-86
2023/04/17 06:42:01;;;;;;;;;;;11.20;78.20;;;-151.14;100.00;62537.16;4995661;28;19921;-85
2023/04/17 06:44:30;;;;;;;;;;;11.20;78.60;;;-151.14;100.00;62537.16;4978605;28;19921;-85
2023/04/17 06:47:02;;;;;;;;;;;11.20;78.80;;;-151.14;100.00;62537.16;4979337;28;19922;-85
2023/04/17 06:49:31;;;;;;;;;;;11.20;78.70;;;-151.14;100.00;62537.16;4995394;28;19928;-85
2023/04/17 06:51:59;;;;;;;;;;;11.20;78.70;;;-151.14;100.00;62537.16;4979151;28;20098;-85
2023/04/17 06:54:29;;;;;;;;;;;11.30;78.70;;;-151.14;100.00;62537.16;4977790;28;19921;-85
2023/04/17 06:56:57;;;;;;;;;;;11.30;78.50;;;-151.14;100.00;62537.16;4979031;28;19922;-85
2023/04/17 06:59:25;;;;;;;;;;;11.30;78.40;;;-151.14;100.00;62537.16;4994988;28;20120;-86
2023/04/17 07:01:53;;;;;;;;;;;11.40;78.30;;;-151.14;100.00;62537.16;4979261;28;19928;-85
2023/04/17 07:04:21;;;;;;;;;;;11.40;78.00;;;-151.14;100.00;62537.16;4994435;28;19929;-86
2023/04/17 07:06:49;;;;;;;;;;;11.40;77.80;;;-151.14;100.00;62537.16;4978558;28;20196;-86
2023/04/17 07:09:17;;;;;;;;;;;11.40;77.90;;;-151.14;100.00;62537.16;4978644;28;19925;-86
2023/04/17 07:11:47;;;;;;;;;;;11.30;78.00;;;-151.14;100.00;62537.16;4978835;28;19922;-85
2023/04/17 07:14:15;;;;;;;;;;;11.30;78.20;;;-151.14;100.00;62537.16;4994362;28;19928;-85
2023/04/17 07:16:43;;;;;;;;;;;11.20;78.30;;;-151.14;100.00;62537.16;4995087;28;19921;-85
2023/04/17 07:19:11;;;;;;;;;;;11.20;78.60;;;-151.14;100.00;62537.16;4978561;28;19921;-85
2023/04/17 07:21:39;;;;;;;;;;;11.20;78.80;;;-151.14;100.00;62537.16;4995046;28;20205;-85
2023/04/17 07:24:07;;;;;;;;;;;11.10;79.00;;;-151.14;100.00;62537.16;4993901;28;19928;-86
2023/04/17 07:26:36;;;;;;;;;;;11.20;79.00;;;-151.14;100.00;62537.16;4978690;28;19928;-85
2023/04/17 07:29:05;;;;;;;;;;;11.20;79.00;;;-151.14;100.00;62537.16;4994473;28;19921;-85
2023/04/17 07:31:34;;;;;;;;;;;11.20;79.00;;;-151.14;100.00;62537.16;4994703;28;19922;-85
2023/04/17 07:34:03;;;;;;;;;;;11.20;78.90;;;-151.14;100.00;62537.16;5010730;28;19943;-86
2023/04/17 07:36:31;;;;;;;;;;;11.20;78.80;;;-151.14;100.00;62537.16;4978396;28;20217;-85
2023/04/17 07:38:59;;;;;;;;;;;11.20;78.80;;;-151.14;100.00;62537.16;4978374;28;19921;-85
2023/04/17 07:41:27;;;;;;;;;;;11.20;78.80;;;-151.14;100.00;62537.16;4975257;28;19928;-86
2023/04/17 07:43:55;;;;;;;;;;;11.20;78.80;;;-151.14;100.00;62537.16;4958910;28;19928;-84
2023/04/17 07:46:25;;;;;;;;;;;11.10;78.90;;;-151.14;100.00;62537.16;4958718;28;20235;-85
2023/04/17 07:48:53;;;;;;;;;;;11.10;79.00;;;-151.14;100.00;62537.16;4974821;28;19922;-85
2023/04/17 07:51:21;;;;;;;;;;;11.10;79.10;;;-151.14;100.00;62537.16;4975136;28;20232;-85
2023/04/17 07:53:49;;;;;;;;;;;11.10;79.20;;;-151.14;100.00;62537.16;4958813;28;19921;-85
2023/04/17 07:56:17;;;;;;;;;;;11.10;79.30;;;-151.14;100.00;62537.16;4958413;28;19922;-85
2023/04/17 07:58:45;;;;;;;;;;;11.10;79.20;;;-151.14;100.00;62537.16;4974734;28;20121;-85
2023/04/17 08:01:13;;;;;;;;;;;11.10;79.20;;;-151.14;100.00;62537.16;4958913;28;19921;-85
2023/04/17 08:03:43;;;;;;;;;;;11.20;79.30;;;-151.14;100.00;62537.16;4958674;28;19922;-85
2023/04/17 08:06:11;;;;;;;;;;;11.20;79.30;;;-151.14;100.00;62537.16;4959431;28;19922;-85
2023/04/17 08:08:39;;;;;;;;;;;11.20;79.00;;;-151.14;100.00;62537.16;4978099;28;20251;-85
2023/04/17 08:11:08;;;;;;;;;;;11.30;78.80;;;-151.14;100.00;62537.16;4962344;28;19928;-85
2023/04/17 08:13:36;;;;;;;;;;;11.30;78.60;;;-151.14;100.00;62537.16;4978292;28;19922;-85
2023/04/17 08:16:04;;;;;;;;;;;11.40;78.40;;;-151.14;100.00;62537.16;4988980;28;19921;-85
2023/04/17 08:18:32;;;;;;;;;;;11.40;78.30;;;-151.14;100.00;62537.16;4997637;28;19921;-85
2023/04/17 08:21:02;;;;;;;;;;;11.40;78.30;;;-151.14;100.00;62537.16;4996855;28;19926;-85
2023/04/17 08:23:30;;;;;;;;;;;11.50;78.20;;;-151.14;100.00;62537.16;4997583;28;19922;-85
2023/04/17 08:25:58;;;;;;;;;;;11.50;78.20;;;-151.14;100.00;62537.16;4980726;28;19928;-84
2023/04/17 08:28:26;;;;;;;;;;;11.50;78.00;;;-151.14;100.00;62537.16;4981368;28;19928;-85
2023/04/17 08:30:54;;;;;;;;;;;11.50;77.90;;;-151.14;100.00;62537.16;4997186;28;19922;-85
2023/04/17 08:33:22;;;;;;;;;;;11.50;77.90;;;-151.14;100.00;62537.16;4981150;28;19921;-86
2023/04/17 08:35:51;;;;;;;;;;;11.50;77.80;;;-151.14;100.00;62537.16;4996847;28;20212;-85
2023/04/17 08:38:20;;;;;;;;;;;11.50;77.90;;;-151.14;100.00;62537.16;4997290;28;20217;-85
2023/04/17 08:40:50;;;;;;;;;;;11.50;77.80;;;-151.14;100.00;62537.16;4981092;28;20117;-85
2023/04/17 08:43:19;;;;;;;;;;;11.50;77.80;;;-151.14;100.00;62537.16;4997359;28;20116;-85
2023/04/17 08:45:52;;;;;;;;;;;11.60;78.00;;;-151.14;100.00;62537.16;5013988;28;19921;-85
2023/04/17 08:48:20;;;;;;;;;;;11.50;78.20;;;-151.14;100.00;62537.16;4981366;28;20124;-85
2023/04/17 08:50:49;;;;;;;;;;;11.50;78.30;;;-151.14;100.00;62537.16;4996889;28;19932;-85
2023/04/17 08:53:18;;;;;;;;;;;11.50;78.50;;;-151.14;100.00;62537.16;4981184;28;19922;-84
2023/04/17 08:55:47;;;;;;;;;;;11.50;78.40;;;-151.14;100.00;62537.16;4980262;28;19928;-84
2023/04/17 08:58:16;;;;;;;;;;;11.60;78.50;;;-151.14;100.00;62537.16;4997235;28;19921;-84
2023/04/17 09:00:44;;;;;;;;;;;11.50;78.40;;;-151.14;100.00;62537.16;4980452;28;19921;-84
2023/04/17 09:03:13;;;;;;;;;;;11.50;78.30;;;-151.14;100.00;62537.16;4980824;28;19921;-84
2023/04/17 09:05:42;;;;;;;;;;;11.50;78.60;;;-151.14;100.00;62537.16;4996278;28;19921;-84
2023/04/17 09:08:11;;;;;;;;;;;11.50;78.60;;;-151.14;100.00;62537.16;4980878;28;19968;-84
2023/04/17 09:10:40;;;;;;;;;;;11.50;78.60;;;-151.14;100.00;62537.16;4980439;28;19925;-85
2023/04/17 09:13:11;;;;;;;;;;;11.50;78.60;;;-151.14;100.00;62537.16;4980481;28;19922;-84
2023/04/17 09:15:39;;;;;;;;;;;11.50;78.80;;;-151.14;100.00;62537.16;4980074;28;19944;-85
2023/04/17 09:18:23;;;;;;;;;;;11.40;78.70;;;-151.14;100.00;62537.16;4979874;28;20209;-84
2023/04/17 09:20:51;;;;;;;;;;;11.40;78.80;;;-151.14;100.00;62537.16;4996448;28;19921;-84
2023/04/17 09:23:21;;;;;;;;;;;11.40;78.60;;;-151.14;100.00;62537.16;4980509;28;19922;-84
2023/04/17 09:26:05;;;;;;;;;;;11.40;78.70;;;-151.14;100.00;62537.16;4995939;28;19928;-85
2023/04/17 09:28:37;;;;;;;;;;;11.50;79.00;;;-151.14;100.00;62537.16;4996663;28;19922;-84
2023/04/17 09:31:06;;;;;;;;;;;11.40;78.80;;;-151.14;100.00;62537.16;4996173;28;19928;-84
2023/04/17 09:33:34;;;;;;;;;;;11.40;78.80;;;-151.14;100.00;62537.16;4996505;28;20243;-84
2023/04/17 09:36:20;;;;;;;;;;;11.40;78.80;;;-151.14;100.00;62537.16;4979704;28;19922;-84
2023/04/17 09:38:48;;;;;;;;;;;11.40;78.80;;;-151.14;100.00;62537.16;4980042;28;19921;-84
2023/04/17 09:41:23;;;;;;;;;;;11.40;79.00;;;-151.14;100.00;62537.16;4996342;28;19928;-84
2023/04/17 09:43:53;;;;;;;;;;;11.40;79.10;;;-151.14;100.00;62537.16;4980159;28;19926;-84
2023/04/17 09:46:34;;;;;;;;;;;11.40;79.10;;;-151.14;100.00;62537.16;4979388;28;19928;-84
2023/04/17 09:49:04;;;;;;;;;;;11.40;79.40;;;-151.14;100.00;62537.16;4979953;28;19927;-83
2023/04/17 09:51:34;;;;;;;;;;;11.40;79.20;;;-151.14;100.00;62537.16;4996065;28;20137;-83
2023/04/17 09:54:04;;;;;;;;;;;11.40;79.10;;;-151.14;100.00;62537.16;4995764;28;19928;-84
2023/04/17 09:56:34;;;;;;;;;;;11.40;79.20;;;-151.14;100.00;62537.16;4980071;28;19928;-84
2023/04/17 09:59:04;;;;;;;;;;;11.40;79.30;;;-151.14;100.00;62537.16;4979816;28;19928;-84
2023/04/17 10:01:33;;;;;;;;;;;11.40;79.10;;;-151.14;100.00;62537.16;4979884;28;19921;-83
2023/04/17 10:04:02;;;;;;;;;;;11.40;79.10;;;-151.14;100.00;62537.16;4995785;28;19921;-84
2023/04/17 10:06:30;;;;;;;;;;;11.40;79.10;;;-151.14;100.00;62537.16;4995712;28;19921;-84
2023/04/17 10:08:59;;;;;;;;;;;11.40;79.10;;;-151.14;100.00;62537.16;4996029;28;19921;-84
2023/04/17 10:11:36;;;;;;;;;;;11.40;79.30;;;-151.14;100.00;62537.16;4979592;28;19944;-84
2023/04/17 10:14:09;;;;;;;;;;;11.40;79.40;;;-151.14;100.00;62537.16;4979065;28;20228;-84
2023/04/17 10:16:37;;;;;;;;;;;11.40;79.30;;;-151.14;100.00;62537.16;4995946;28;19922;-84
2023/04/17 10:19:28;;;;;;;;;;;11.40;79.30;;;-151.14;100.00;62537.16;4995727;28;19943;-84
2023/04/17 10:22:28;;;;;;;;;;;11.40;79.20;;;-151.14;100.00;62537.16;4995647;28;19928;-84
2023/04/17 10:25:17;;;;;;;;;;;11.40;79.10;;;-151.14;100.00;62537.16;4988451;28;20090;-83
2023/04/17 10:27:47;;;;;;;;;;;11.40;79.60;;;-151.14;100.00;62537.16;4979775;28;19940;-84
2023/04/17 10:30:16;;;;;;;;;;;11.40;79.60;;;-151.14;100.00;62537.16;4978321;28;20223;-84
2023/04/17 10:32:45;;;;;;;;;;;11.40;79.60;;;-151.14;100.00;62537.16;4979432;28;19922;-84
2023/04/17 10:35:36;;;;;;;;;;;11.40;79.70;;;-151.14;100.00;62537.16;4978814;28;20128;-84
2023/04/17 10:38:05;;;;;;;;;;;11.40;79.50;;;-151.14;100.00;62537.16;4995527;28;19936;-84
2023/04/17 10:40:34;;;;;;;;;;;11.40;79.40;;;-151.14;100.00;62537.16;4979204;28;20094;-84
2023/04/17 10:43:03;;;;;;;;;;;11.40;79.40;;;-151.14;100.00;62537.16;4995464;28;19944;-84
2023/04/17 10:45:53;;;;;;;;;;;11.40;79.30;;;-151.14;100.00;62537.16;4994709;28;19943;-84
2023/04/17 10:48:22;;;;;;;;;;;11.40;79.50;;;-151.14;100.00;62537.16;4995379;28;19922;-84
2023/04/17 10:50:50;;;;;;;;;;;11.40;79.60;;;-151.14;100.00;62537.16;4994813;28;19928;-84
2023/04/17 10:53:38;;;;;;;;;;;11.40;79.40;;;-151.14;100.00;62537.16;4979136;28;19922;-84
2023/04/17 10:56:06;;;;;;;;;;;11.40;79.70;;;-151.14;100.00;62537.16;4978268;28;19926;-84
2023/04/17 10:58:37;;;;;;;;;;;11.40;79.50;;;-151.14;100.00;62537.16;4979053;28;19928;-84
2023/04/17 11:01:11;;;;;;;;;;;11.40;79.50;;;-151.14;100.00;62537.16;4995027;28;19921;-84
2023/04/17 11:03:39;;;;;;;;;;;11.40;79.50;;;-151.14;100.00;62537.16;4995442;28;20117;-84
2023/04/17 11:06:07;;;;;;;;;;;11.40;79.90;;;-151.14;100.00;62537.16;4994429;28;20320;-84
2023/04/17 11:08:35;;;;;;;;;;;11.40;79.80;;;-151.14;100.00;62537.16;4995104;28;19928;-84